sensor_id;sensor_type;location;lat;lon;timestamp;pressure;altitude;pressure_sealevel;temperature;humidity
12879;BME280;20617;49.476;10.986;2023-02-13T00:00:00;100355.75;;;4.93;100.00
12879;BME280;20617;49.476;10.986;2023-02-13T00:02:06;100353.88;;;4.83;100.00
12879;BME280;20617;49.476;10.986;2023-02-13T00:04:11;100358.09;;;4.76;100.00
12879;BME280;20617;49.476;10.986;2023-02-13T00:06:16;100358.06;;;4.74;100.00
12879;BME280;20617;49.476;10.986;2023-02-13T00:08:21;100354.56;;;4.69;100.00
12879;BME280;20617;49.476;10.986;2023-02-13T00:10:26;100352.69;;;4.62;100.00
12879;BME280;20617;49.476;10.986;2023-02-13T00:12:31;100353.47;;;4.57;100.00
12879;BME280;20617;49.476;10.986;2023-02-13T00:14:39;100347.44;;;4.54;100.00
12879;BME280;20617;49.476;10.986;2023-02-13T00:16:44;100348.31;;;4.55;100.00
12879;BME280;20617;49.476;10.986;2023-02-13T00:18:49;100342.25;;;4.51;100.00
12879;BME280;20617;49.476;10.986;2023-02-13T00:20:58;100345.59;;;4.46;100.00
12879;BME280;20617;49.476;10.986;2023-02-13T00:23:03;100345.50;;;4.41;100.00
12879;BME280;20617;49.476;10.986;2023-02-13T00:25:08;100346.34;;;4.42;100.00
12879;BME280;20617;49.476;10.986;2023-02-13T00:27:13;100350.59;;;4.37;100.00
12879;BME280;20617;49.476;10.986;2023-02-13T00:29:18;100341.97;;;4.36;100.00
12879;BME280;20617;49.476;10.986;2023-02-13T00:31:25;100345.38;;;4.34;100.00
12879;BME280;20617;49.476;10.986;2023-02-13T00:33:30;100339.34;;;4.33;100.00
12879;BME280;20617;49.476;10.986;2023-02-13T00:35:35;100339.34;;;4.33;100.00
12879;BME280;20617;49.476;10.986;2023-02-13T00:37:40;100343.66;;;4.34;100.00
12879;BME280;20617;49.476;10.986;2023-02-13T00:39:45;100347.13;;;4.36;100.00
12879;BME280;20617;49.476;10.986;2023-02-13T00:41:51;100351.41;;;4.36;100.00
12879;BME280;20617;49.476;10.986;2023-02-13T00:43:56;100347.16;;;4.39;100.00
12879;BME280;20617;49.476;10.986;2023-02-13T00:46:01;100344.66;;;4.42;100.00
12879;BME280;20617;49.476;10.986;2023-02-13T00:48:09;100353.19;;;4.37;100.00
12879;BME280;20617;49.476;10.986;2023-02-13T00:50:14;100349.59;;;4.30;100.00
12879;BME280;20617;49.476;10.986;2023-02-13T00:52:19;100339.13;;;4.19;100.00
12879;BME280;20617;49.476;10.986;2023-02-13T00:54:24;100340.59;;;4.06;100.00
12879;BME280;20617;49.476;10.986;2023-02-13T00:56:29;100337.06;;;4.00;100.00
12879;BME280;20617;49.476;10.986;2023-02-13T00:58:34;100341.25;;;3.93;100.00
12879;BME280;20617;49.476;10.986;2023-02-13T01:00:39;100332.56;;;3.90;100.00
12879;BME280;20617;49.476;10.986;2023-02-13T01:02:43;100345.41;;;3.86;100.00
12879;BME280;20617;49.476;10.986;2023-02-13T01:04:51;100337.63;;;3.83;100.00
12879;BME280;20617;49.476;10.986;2023-02-13T01:06:56;100333.34;;;3.84;100.00
12879;BME280;20617;49.476;10.986;2023-02-13T01:09:01;100337.56;;;3.80;100.00
12879;BME280;20617;49.476;10.986;2023-02-13T01:11:06;100337.50;;;3.76;100.00
12879;BME280;20617;49.476;10.986;2023-02-13T01:13:11;100333.19;;;3.76;100.00
12879;BME280;20617;49.476;10.986;2023-02-13T01:15:16;100329.72;;;3.73;100.00
12879;BME280;20617;49.476;10.986;2023-02-13T01:17:22;100329.50;;;3.62;100.00
12879;BME280;20617;49.476;10.986;2023-02-13T01:19:30;100330.28;;;3.59;100.00
12879;BME280;20617;49.476;10.986;2023-02-13T01:21:38;100324.16;;;3.53;100.00
12879;BME280;20617;49.476;10.986;2023-02-13T01:23:43;100329.16;;;3.45;100.00
12879;BME280;20617;49.476;10.986;2023-02-13T01:25:47;100323.09;;;3.42;100.00
12879;BME280;20617;49.476;10.986;2023-02-13T01:27:55;100322.91;;;3.32;100.00
12879;BME280;20617;49.476;10.986;2023-02-13T01:30:00;100325.41;;;3.29;100.00
12879;BME280;20617;49.476;10.986;2023-02-13T01:32:05;100319.31;;;3.26;100.00
12879;BME280;20617;49.476;10.986;2023-02-13T01:34:10;100317.56;;;3.23;100.00
12879;BME280;20617;49.476;10.986;2023-02-13T01:36:15;100329.53;;;3.21;100.00
12879;BME280;20617;49.476;10.986;2023-02-13T01:38:23;100323.47;;;3.17;100.00
12879;BME280;20617;49.476;10.986;2023-02-13T01:40:27;100316.53;;;3.15;100.00
12879;BME280;20617;49.476;10.986;2023-02-13T01:42:34;100315.63;;;3.13;100.00
12879;BME280;20617;49.476;10.986;2023-02-13T01:44:50;100318.22;;;3.13;100.00
12879;BME280;20617;49.476;10.986;2023-02-13T01:46:56;100317.34;;;3.12;100.00
12879;BME280;20617;49.476;10.986;2023-02-13T01:49:04;100313.06;;;3.13;100.00
12879;BME280;20617;49.476;10.986;2023-02-13T01:51:16;100312.16;;;3.11;100.00
12879;BME280;20617;49.476;10.986;2023-02-13T01:53:27;100317.28;;;3.09;100.00
12879;BME280;20617;49.476;10.986;2023-02-13T01:55:34;100319.72;;;3.03;100.00
12879;BME280;20617;49.476;10.986;2023-02-13T01:57:43;100317.03;;;2.99;100.00
12879;BME280;20617;49.476;10.986;2023-02-13T01:59:53;100312.69;;;2.96;100.00
12879;BME280;20617;49.476;10.986;2023-02-13T02:02:02;100308.34;;;2.93;100.00
12879;BME280;20617;49.476;10.986;2023-02-13T02:04:09;100311.88;;;2.97;100.00
12879;BME280;20617;49.476;10.986;2023-02-13T02:06:22;100307.53;;;2.94;100.00
12879;BME280;20617;49.476;10.986;2023-02-13T02:08:33;100316.13;;;2.97;100.00
12879;BME280;20617;49.476;10.986;2023-02-13T02:10:39;100318.63;;;2.92;100.00
12879;BME280;20617;49.476;10.986;2023-02-13T02:12:49;100309.13;;;2.89;100.00
12879;BME280;20617;49.476;10.986;2023-02-13T02:14:58;100308.94;;;2.82;100.00
12879;BME280;20617;49.476;10.986;2023-02-13T02:17:06;100308.81;;;2.74;100.00
12879;BME280;20617;49.476;10.986;2023-02-13T02:19:18;100307.03;;;2.73;100.00
12879;BME280;20617;49.476;10.986;2023-02-13T02:21:51;100305.31;;;2.72;100.00
12879;BME280;20617;49.476;10.986;2023-02-13T02:24:42;100308.63;;;2.66;100.00
12879;BME280;20617;49.476;10.986;2023-02-13T02:27:03;100310.13;;;2.57;100.00
12879;BME280;20617;49.476;10.986;2023-02-13T02:29:43;100296.53;;;2.62;100.00
12879;BME280;20617;49.476;10.986;2023-02-13T02:32:22;100305.25;;;2.69;100.00
12879;BME280;20617;49.476;10.986;2023-02-13T02:34:36;100298.50;;;2.74;100.00
12879;BME280;20617;49.476;10.986;2023-02-13T02:36:59;100299.38;;;2.75;100.00
12879;BME280;20617;49.476;10.986;2023-02-13T02:39:15;100304.53;;;2.75;100.00
12879;BME280;20617;49.476;10.986;2023-02-13T02:41:30;100301.88;;;2.71;100.00
12879;BME280;20617;49.476;10.986;2023-02-13T02:43:54;100307.69;;;2.63;100.00
12879;BME280;20617;49.476;10.986;2023-02-13T02:46:06;100310.97;;;2.57;100.00
12879;BME280;20617;49.476;10.986;2023-02-13T02:48:22;100316.06;;;2.54;100.00
12879;BME280;20617;49.476;10.986;2023-02-13T02:50:47;100321.13;;;2.53;100.00
12879;BME280;20617;49.476;10.986;2023-02-13T02:52:58;100310.03;;;2.54;100.00
12879;BME280;20617;49.476;10.986;2023-02-13T02:55:21;100313.44;;;2.53;100.00
12879;BME280;20617;49.476;10.986;2023-02-13T02:57:30;100304.75;;;2.47;100.00
12879;BME280;20617;49.476;10.986;2023-02-13T02:59:50;100302.16;;;2.46;100.00
12879;BME280;20617;49.476;10.986;2023-02-13T03:02:09;100303.06;;;2.48;100.00
12879;BME280;20617;49.476;10.986;2023-02-13T03:04:33;100306.50;;;2.48;100.00
12879;BME280;20617;49.476;10.986;2023-02-13T03:06:55;100306.50;;;2.48;100.00
12879;BME280;20617;49.476;10.986;2023-02-13T03:09:05;100308.19;;;2.48;100.00
12879;BME280;20617;49.476;10.986;2023-02-13T03:11:23;100305.50;;;2.42;100.00
12879;BME280;20617;49.476;10.986;2023-02-13T03:13:43;100306.31;;;2.41;100.00
12879;BME280;20617;49.476;10.986;2023-02-13T03:15:51;100311.44;;;2.41;100.00
12879;BME280;20617;49.476;10.986;2023-02-13T03:18:22;100311.28;;;2.33;100.00
12879;BME280;20617;49.476;10.986;2023-02-13T03:20:45;100314.50;;;2.26;100.00
12879;BME280;20617;49.476;10.986;2023-02-13T03:23:11;100319.59;;;2.23;100.00
12879;BME280;20617;49.476;10.986;2023-02-13T03:25:22;100315.38;;;2.26;100.00
12879;BME280;20617;49.476;10.986;2023-02-13T03:27:42;100316.28;;;2.29;100.00
12879;BME280;20617;49.476;10.986;2023-02-13T03:30:08;100313.78;;;2.30;100.00
12879;BME280;20617;49.476;10.986;2023-02-13T03:32:22;100312.94;;;2.31;100.00
12879;BME280;20617;49.476;10.986;2023-02-13T03:34:33;100320.63;;;2.31;100.00
12879;BME280;20617;49.476;10.986;2023-02-13T03:36:58;100312.94;;;2.33;100.00
12879;BME280;20617;49.476;10.986;2023-02-13T03:39:21;100316.38;;;2.32;100.00
12879;BME280;20617;49.476;10.986;2023-02-13T03:41:29;100315.44;;;2.28;100.00
12879;BME280;20617;49.476;10.986;2023-02-13T03:43:41;100324.69;;;2.21;100.00
12879;BME280;20617;49.476;10.986;2023-02-13T03:45:48;100326.34;;;2.19;100.00
12879;BME280;20617;49.476;10.986;2023-02-13T03:47:56;100323.56;;;2.10;100.00
12879;BME280;20617;49.476;10.986;2023-02-13T03:50:11;100333.69;;;2.06;100.00
12879;BME280;20617;49.476;10.986;2023-02-13T03:52:21;100327.75;;;2.07;100.00
12879;BME280;20617;49.476;10.986;2023-02-13T03:54:32;100333.78;;;2.09;100.00
12879;BME280;20617;49.476;10.986;2023-02-13T03:56:52;100327.78;;;2.08;100.00
12879;BME280;20617;49.476;10.986;2023-02-13T03:59:19;100332.88;;;2.07;100.00
12879;BME280;20617;49.476;10.986;2023-02-13T04:01:28;100321.69;;;2.04;100.00
12879;BME280;20617;49.476;10.986;2023-02-13T04:03:36;100328.03;;;1.84;100.00
12879;BME280;20617;49.476;10.986;2023-02-13T04:05:47;100333.81;;;1.77;100.00
12879;BME280;20617;49.476;10.986;2023-02-13T04:07:58;100334.81;;;1.82;100.00
12879;BME280;20617;49.476;10.986;2023-02-13T04:10:07;100333.16;;;1.84;100.00
12879;BME280;20617;49.476;10.986;2023-02-13T04:12:17;100342.44;;;1.79;100.00
12879;BME280;20617;49.476;10.986;2023-02-13T04:14:24;100337.38;;;1.82;100.00
12879;BME280;20617;49.476;10.986;2023-02-13T04:16:34;100337.44;;;1.85;100.00
12879;BME280;20617;49.476;10.986;2023-02-13T04:18:41;100339.28;;;1.89;100.00
12879;BME280;20617;49.476;10.986;2023-02-13T04:20:46;100341.75;;;1.86;100.00
12879;BME280;20617;49.476;10.986;2023-02-13T04:22:51;100336.59;;;1.85;100.00
12879;BME280;20617;49.476;10.986;2023-02-13T04:24:59;100326.25;;;1.83;100.00
12879;BME280;20617;49.476;10.986;2023-02-13T04:27:04;100331.41;;;1.83;100.00
12879;BME280;20617;49.476;10.986;2023-02-13T04:29:09;100333.94;;;1.81;100.00
12879;BME280;20617;49.476;10.986;2023-02-13T04:31:14;100332.16;;;1.79;100.00
12879;BME280;20617;49.476;10.986;2023-02-13T04:33:19;100329.53;;;1.77;100.00
12879;BME280;20617;49.476;10.986;2023-02-13T04:35:24;100330.34;;;1.75;100.00
12879;BME280;20617;49.476;10.986;2023-02-13T04:37:29;100336.38;;;1.77;100.00
12879;BME280;20617;49.476;10.986;2023-02-13T04:39:34;100332.84;;;1.72;100.00
12879;BME280;20617;49.476;10.986;2023-02-13T04:41:42;100332.88;;;1.73;100.00
12879;BME280;20617;49.476;10.986;2023-02-13T04:43:46;100339.63;;;1.70;100.00
12879;BME280;20617;49.476;10.986;2023-02-13T04:45:55;100335.34;;;1.70;100.00
12879;BME280;20617;49.476;10.986;2023-02-13T04:48:00;100332.84;;;1.72;100.00
12879;BME280;20617;49.476;10.986;2023-02-13T04:50:05;100334.59;;;1.74;100.00
12879;BME280;20617;49.476;10.986;2023-02-13T04:52:10;100331.91;;;1.70;100.00
12879;BME280;20617;49.476;10.986;2023-02-13T04:54:15;100319.88;;;1.67;100.00
12879;BME280;20617;49.476;10.986;2023-02-13T04:56:20;100321.31;;;1.57;100.00
12879;BME280;20617;49.476;10.986;2023-02-13T04:58:28;100324.69;;;1.56;100.00
12879;BME280;20617;49.476;10.986;2023-02-13T05:00:32;100331.50;;;1.54;100.00
12879;BME280;20617;49.476;10.986;2023-02-13T05:02:38;100324.53;;;1.50;100.00
12879;BME280;20617;49.476;10.986;2023-02-13T05:04:46;100323.66;;;1.50;100.00
12879;BME280;20617;49.476;10.986;2023-02-13T05:06:51;100334.88;;;1.53;100.00
12879;BME280;20617;49.476;10.986;2023-02-13T05:08:56;100332.94;;;1.45;100.00
12879;BME280;20617;49.476;10.986;2023-02-13T05:11:01;100335.75;;;1.24;100.00
12879;BME280;20617;49.476;10.986;2023-02-13T05:13:05;100331.50;;;1.24;100.00
12879;BME280;20617;49.476;10.986;2023-02-13T05:15:13;100335.81;;;1.25;100.00
12879;BME280;20617;49.476;10.986;2023-02-13T05:17:18;100339.25;;;1.26;100.00
12879;BME280;20617;49.476;10.986;2023-02-13T05:19:23;100335.91;;;1.28;100.00
12879;BME280;20617;49.476;10.986;2023-02-13T05:21:28;100333.16;;;1.22;100.00
12879;BME280;20617;49.476;10.986;2023-02-13T05:23:45;100339.88;;;1.19;100.00
12879;BME280;20617;49.476;10.986;2023-02-13T05:25:50;100347.31;;;1.09;100.00
12879;BME280;20617;49.476;10.986;2023-02-13T05:27:57;100340.53;;;1.11;100.00
12879;BME280;20617;49.476;10.986;2023-02-13T05:30:02;100357.22;;;0.97;100.00
12879;BME280;20617;49.476;10.986;2023-02-13T05:32:07;100361.59;;;1.01;100.00
12879;BME280;20617;49.476;10.986;2023-02-13T05:34:12;100368.59;;;1.07;100.00
12879;BME280;20617;49.476;10.986;2023-02-13T05:36:16;100352.50;;;1.11;100.00
12879;BME280;20617;49.476;10.986;2023-02-13T05:38:21;100354.31;;;1.15;100.00
12879;BME280;20617;49.476;10.986;2023-02-13T05:40:26;100358.63;;;1.16;100.00
12879;BME280;20617;49.476;10.986;2023-02-13T05:42:31;100360.38;;;1.17;100.00
12879;BME280;20617;49.476;10.986;2023-02-13T05:44:36;100356.94;;;1.17;100.00
12879;BME280;20617;49.476;10.986;2023-02-13T05:46:41;100357.84;;;1.19;100.00
12879;BME280;20617;49.476;10.986;2023-02-13T05:48:50;100366.47;;;1.21;100.00
12879;BME280;20617;49.476;10.986;2023-02-13T05:50:57;100369.78;;;1.17;100.00
12879;BME280;20617;49.476;10.986;2023-02-13T05:53:02;100370.56;;;1.14;100.00
12879;BME280;20617;49.476;10.986;2023-02-13T05:55:07;100366.19;;;1.11;100.00
12879;BME280;20617;49.476;10.986;2023-02-13T05:57:11;100374.59;;;1.07;100.00
12879;BME280;20617;49.476;10.986;2023-02-13T05:59:17;100372.78;;;1.03;100.00
12879;BME280;20617;49.476;10.986;2023-02-13T06:01:24;100374.41;;;1.01;100.00
12879;BME280;20617;49.476;10.986;2023-02-13T06:03:30;100375.34;;;1.03;100.00
12879;BME280;20617;49.476;10.986;2023-02-13T06:05:38;100383.81;;;1.01;100.00
12879;BME280;20617;49.476;10.986;2023-02-13T06:07:42;100379.47;;;0.98;100.00
12879;BME280;20617;49.476;10.986;2023-02-13T06:09:47;100383.69;;;0.96;100.00
12879;BME280;20617;49.476;10.986;2023-02-13T06:11:52;100385.44;;;0.99;100.00
12879;BME280;20617;49.476;10.986;2023-02-13T06:13:57;100389.78;;;1.00;100.00
12879;BME280;20617;49.476;10.986;2023-02-13T06:16:02;100379.56;;;1.01;100.00
12879;BME280;20617;49.476;10.986;2023-02-13T06:18:07;100392.34;;;1.00;100.00
12879;BME280;20617;49.476;10.986;2023-02-13T06:20:12;100389.31;;;0.84;100.00
12879;BME280;20617;49.476;10.986;2023-02-13T06:22:19;100392.59;;;0.80;100.00
12879;BME280;20617;49.476;10.986;2023-02-13T06:24:24;100382.38;;;0.82;100.00
12879;BME280;20617;49.476;10.986;2023-02-13T06:26:29;100386.88;;;0.89;100.00
12879;BME280;20617;49.476;10.986;2023-02-13T06:28:34;100387.75;;;0.89;100.00
12879;BME280;20617;49.476;10.986;2023-02-13T06:30:39;100394.84;;;0.98;100.00
12879;BME280;20617;49.476;10.986;2023-02-13T06:32:45;100401.00;;;1.03;100.00
12879;BME280;20617;49.476;10.986;2023-02-13T06:34:51;100402.00;;;1.08;100.00
12879;BME280;20617;49.476;10.986;2023-02-13T06:36:55;100394.44;;;1.13;100.00
12879;BME280;20617;49.476;10.986;2023-02-13T06:39:03;100394.44;;;1.13;100.00
12879;BME280;20617;49.476;10.986;2023-02-13T06:41:08;100392.78;;;1.13;100.00
12879;BME280;20617;49.476;10.986;2023-02-13T06:43:13;100399.63;;;1.15;100.00
12879;BME280;20617;49.476;10.986;2023-02-13T06:45:18;100401.25;;;1.12;100.00
12879;BME280;20617;49.476;10.986;2023-02-13T06:47:23;100391.94;;;1.15;100.00
12879;BME280;20617;49.476;10.986;2023-02-13T06:49:28;100402.88;;;1.09;100.00
12879;BME280;20617;49.476;10.986;2023-02-13T06:51:33;100404.66;;;1.11;100.00
12879;BME280;20617;49.476;10.986;2023-02-13T06:53:38;100406.59;;;1.19;100.00
12879;BME280;20617;49.476;10.986;2023-02-13T06:55:48;100413.59;;;1.24;100.00
12879;BME280;20617;49.476;10.986;2023-02-13T06:57:57;100412.69;;;1.22;100.00
12879;BME280;20617;49.476;10.986;2023-02-13T07:00:06;100411.00;;;1.23;100.00
12879;BME280;20617;49.476;10.986;2023-02-13T07:02:14;100414.53;;;1.28;100.00
12879;BME280;20617;49.476;10.986;2023-02-13T07:04:22;100414.69;;;1.32;100.00
12879;BME280;20617;49.476;10.986;2023-02-13T07:06:27;100413.75;;;1.29;100.00
12879;BME280;20617;49.476;10.986;2023-02-13T07:08:34;100421.25;;;1.23;100.00
12879;BME280;20617;49.476;10.986;2023-02-13T07:10:39;100433.84;;;1.15;100.00
12879;BME280;20617;49.476;10.986;2023-02-13T07:12:51;100430.94;;;1.04;100.00
12879;BME280;20617;49.476;10.986;2023-02-13T07:15:07;100436.97;;;1.05;100.00
12879;BME280;20617;49.476;10.986;2023-02-13T07:17:12;100437.16;;;1.11;100.00
12879;BME280;20617;49.476;10.986;2023-02-13T07:19:17;100434.88;;;1.22;100.00
12879;BME280;20617;49.476;10.986;2023-02-13T07:21:22;100442.84;;;1.29;100.00
12879;BME280;20617;49.476;10.986;2023-02-13T07:23:27;100440.59;;;1.40;100.00
12879;BME280;20617;49.476;10.986;2023-02-13T07:25:33;100441.78;;;1.51;100.00
12879;BME280;20617;49.476;10.986;2023-02-13T07:27:38;100431.03;;;1.65;100.00
12879;BME280;20617;49.476;10.986;2023-02-13T07:29:46;100429.59;;;1.74;100.00
12879;BME280;20617;49.476;10.986;2023-02-13T07:31:51;100431.22;;;1.71;100.00
12879;BME280;20617;49.476;10.986;2023-02-13T07:33:56;100432.06;;;1.71;100.00
12879;BME280;20617;49.476;10.986;2023-02-13T07:36:01;100433.78;;;1.71;100.00
12879;BME280;20617;49.476;10.986;2023-02-13T07:38:06;100426.94;;;1.71;100.00
12879;BME280;20617;49.476;10.986;2023-02-13T07:40:14;100428.81;;;1.77;100.00
12879;BME280;20617;49.476;10.986;2023-02-13T07:42:18;100430.50;;;1.75;100.00
12879;BME280;20617;49.476;10.986;2023-02-13T07:44:23;100430.31;;;1.69;100.00
12879;BME280;20617;49.476;10.986;2023-02-13T07:46:31;100430.44;;;1.73;100.00
12879;BME280;20617;49.476;10.986;2023-02-13T07:48:36;100436.78;;;1.86;100.00
12879;BME280;20617;49.476;10.986;2023-02-13T07:50:41;100429.03;;;1.85;100.00
12879;BME280;20617;49.476;10.986;2023-02-13T07:52:52;100437.75;;;1.90;100.00
12879;BME280;20617;49.476;10.986;2023-02-13T07:54:57;100436.97;;;1.92;100.00
12879;BME280;20617;49.476;10.986;2023-02-13T07:57:03;100435.44;;;2.00;100.00
12879;BME280;20617;49.476;10.986;2023-02-13T07:59:09;100439.81;;;2.03;100.00
12879;BME280;20617;49.476;10.986;2023-02-13T08:01:16;100439.97;;;2.09;100.00
12879;BME280;20617;49.476;10.986;2023-02-13T08:03:23;100439.88;;;2.04;100.00
12879;BME280;20617;49.476;10.986;2023-02-13T08:05:30;100435.19;;;1.91;100.00
12879;BME280;20617;49.476;10.986;2023-02-13T08:07:36;100438.47;;;1.86;100.00
12879;BME280;20617;49.476;10.986;2023-02-13T08:09:42;100445.19;;;1.80;100.00
12879;BME280;20617;49.476;10.986;2023-02-13T08:12:00;100438.38;;;1.81;100.00
12879;BME280;20617;49.476;10.986;2023-02-13T08:14:05;100437.91;;;1.96;100.00
12879;BME280;20617;49.476;10.986;2023-02-13T08:16:10;100441.44;;;1.99;100.00
12879;BME280;20617;49.476;10.986;2023-02-13T08:18:15;100438.31;;;2.11;100.00
12879;BME280;20617;49.476;10.986;2023-02-13T08:20:23;100436.16;;;2.26;100.00
12879;BME280;20617;49.476;10.986;2023-02-13T08:22:28;100430.47;;;2.38;100.00
12879;BME280;20617;49.476;10.986;2023-02-13T08:24:33;100431.50;;;2.45;100.00
12879;BME280;20617;49.476;10.986;2023-02-13T08:26:38;100428.22;;;2.51;100.00
12879;BME280;20617;49.476;10.986;2023-02-13T08:28:44;100430.16;;;2.59;100.00
12879;BME280;20617;49.476;10.986;2023-02-13T08:30:49;100432.84;;;2.64;100.00
12879;BME280;20617;49.476;10.986;2023-02-13T08:32:56;100428.81;;;2.74;100.00
12879;BME280;20617;49.476;10.986;2023-02-13T08:35:01;100425.53;;;2.81;100.00
12879;BME280;20617;49.476;10.986;2023-02-13T08:37:08;100414.47;;;2.85;100.00
12879;BME280;20617;49.476;10.986;2023-02-13T08:39:13;100420.50;;;2.85;100.00
12879;BME280;20617;49.476;10.986;2023-02-13T08:41:18;100415.31;;;2.84;100.00
12879;BME280;20617;49.476;10.986;2023-02-13T08:43:24;100421.38;;;2.86;100.00
12879;BME280;20617;49.476;10.986;2023-02-13T08:45:29;100426.53;;;2.87;100.00
12879;BME280;20617;49.476;10.986;2023-02-13T08:47:33;100424.09;;;2.92;100.00
12879;BME280;20617;49.476;10.986;2023-02-13T08:49:38;100419.53;;;2.80;100.00
12879;BME280;20617;49.476;10.986;2023-02-13T08:51:43;100435.78;;;2.79;100.00
12879;BME280;20617;49.476;10.986;2023-02-13T08:53:51;100433.25;;;2.81;100.00
12879;BME280;20617;49.476;10.986;2023-02-13T08:55:56;100428.50;;;2.98;100.00
12879;BME280;20617;49.476;10.986;2023-02-13T08:58:02;100427.06;;;3.09;100.00
12879;BME280;20617;49.476;10.986;2023-02-13T09:00:08;100425.50;;;3.17;100.00
12879;BME280;20617;49.476;10.986;2023-02-13T09:02:14;100426.56;;;3.25;100.00
12879;BME280;20617;49.476;10.986;2023-02-13T09:04:19;100427.72;;;3.38;100.00
12879;BME280;20617;49.476;10.986;2023-02-13T09:06:23;100424.75;;;3.21;100.00
12879;BME280;20617;49.476;10.986;2023-02-13T09:08:29;100421.97;;;3.12;100.00
12879;BME280;20617;49.476;10.986;2023-02-13T09:10:37;100425.41;;;3.12;100.00
12879;BME280;20617;49.476;10.986;2023-02-13T09:12:51;100429.63;;;3.09;100.00
12879;BME280;20617;49.476;10.986;2023-02-13T09:14:56;100425.69;;;3.23;100.00
12879;BME280;20617;49.476;10.986;2023-02-13T09:17:01;100424.34;;;3.42;100.00
12879;BME280;20617;49.476;10.986;2023-02-13T09:19:06;100415.84;;;3.45;100.00
12879;BME280;20617;49.476;10.986;2023-02-13T09:21:11;100418.97;;;3.31;100.00
12879;BME280;20617;49.476;10.986;2023-02-13T09:23:16;100418.09;;;3.31;100.00
12879;BME280;20617;49.476;10.986;2023-02-13T09:25:21;100422.50;;;3.35;100.00
12879;BME280;20617;49.476;10.986;2023-02-13T09:27:29;100414.41;;;3.59;100.00
12879;BME280;20617;49.476;10.986;2023-02-13T09:29:35;100417.34;;;3.76;100.00
12879;BME280;20617;49.476;10.986;2023-02-13T09:31:40;100415.03;;;3.90;100.00
12879;BME280;20617;49.476;10.986;2023-02-13T09:33:46;100414.91;;;3.83;100.00
12879;BME280;20617;49.476;10.986;2023-02-13T09:35:51;100413.13;;;3.79;100.00
12879;BME280;20617;49.476;10.986;2023-02-13T09:37:59;100412.00;;;3.67;100.00
12879;BME280;20617;49.476;10.986;2023-02-13T09:40:09;100415.47;;;3.69;100.00
12879;BME280;20617;49.476;10.986;2023-02-13T09:42:21;100415.09;;;3.52;100.00
12879;BME280;20617;49.476;10.986;2023-02-13T09:44:35;100425.41;;;3.52;100.00
12879;BME280;20617;49.476;10.986;2023-02-13T09:46:44;100416.69;;;3.44;100.00
12879;BME280;20617;49.476;10.986;2023-02-13T09:48:52;100423.72;;;3.52;100.00
12879;BME280;20617;49.476;10.986;2023-02-13T09:51:00;100421.97;;;3.50;100.00
12879;BME280;20617;49.476;10.986;2023-02-13T09:53:05;100424.53;;;3.50;100.00
12879;BME280;20617;49.476;10.986;2023-02-13T09:55:15;100429.06;;;3.61;100.00
12879;BME280;20617;49.476;10.986;2023-02-13T09:57:26;100426.50;;;3.63;100.00
12879;BME280;20617;49.476;10.986;2023-02-13T09:59:41;100429.94;;;3.62;100.00
12879;BME280;20617;49.476;10.986;2023-02-13T10:01:51;100426.25;;;3.51;100.00
12879;BME280;20617;49.476;10.986;2023-02-13T10:04:20;100426.50;;;3.61;100.00
12879;BME280;20617;49.476;10.986;2023-02-13T10:06:29;100430.22;;;3.76;100.00
12879;BME280;20617;49.476;10.986;2023-02-13T10:08:55;100425.38;;;3.91;100.00
12879;BME280;20617;49.476;10.986;2023-02-13T10:11:09;100418.69;;;4.01;100.00
12879;BME280;20617;49.476;10.986;2023-02-13T10:13:29;100422.31;;;4.12;100.00
12879;BME280;20617;49.476;10.986;2023-02-13T10:15:45;100416.34;;;4.13;100.00
12879;BME280;20617;49.476;10.986;2023-02-13T10:17:56;100408.47;;;4.07;100.00
12879;BME280;20617;49.476;10.986;2023-02-13T10:20:06;100422.50;;;3.77;100.00
12879;BME280;20617;49.476;10.986;2023-02-13T10:22:14;100421.47;;;3.69;100.00
12879;BME280;20617;49.476;10.986;2023-02-13T10:24:29;100418.78;;;3.63;100.00
12879;BME280;20617;49.476;10.986;2023-02-13T10:26:37;100425.00;;;3.73;100.00
12879;BME280;20617;49.476;10.986;2023-02-13T10:28:50;100427.94;;;3.91;100.00
12879;BME280;20617;49.476;10.986;2023-02-13T10:31:16;100424.09;;;4.15;100.00
12879;BME280;20617;49.476;10.986;2023-02-13T10:33:27;100414.00;;;4.27;100.00
12879;BME280;20617;49.476;10.986;2023-02-13T10:35:33;100417.59;;;4.35;100.00
12879;BME280;20617;49.476;10.986;2023-02-13T10:37:38;100413.44;;;4.45;100.00
12879;BME280;20617;49.476;10.986;2023-02-13T10:39:45;100408.13;;;4.34;100.00
12879;BME280;20617;49.476;10.986;2023-02-13T10:41:52;100418.59;;;4.43;100.00
12879;BME280;20617;49.476;10.986;2023-02-13T10:44:09;100419.47;;;4.44;100.00
12879;BME280;20617;49.476;10.986;2023-02-13T10:46:29;100415.47;;;4.60;100.00
12879;BME280;20617;49.476;10.986;2023-02-13T10:48:58;100412.13;;;4.67;100.00
12879;BME280;20617;49.476;10.986;2023-02-13T10:51:11;100418.09;;;4.63;100.00
12879;BME280;20617;49.476;10.986;2023-02-13T10:53:24;100415.25;;;4.49;100.00
12879;BME280;20617;49.476;10.986;2023-02-13T10:58:33;100421.91;;;4.36;100.00
12879;BME280;20617;49.476;10.986;2023-02-13T11:00:50;100420.63;;;4.13;100.00
12879;BME280;20617;49.476;10.986;2023-02-13T11:03:00;100420.78;;;4.20;100.00
12879;BME280;20617;49.476;10.986;2023-02-13T11:05:13;100415.66;;;4.22;100.00
12879;BME280;20617;49.476;10.986;2023-02-13T11:07:22;100420.00;;;4.26;100.00